createdAt,value
2023-01-07T00:01:12.738Z,984.88
2023-01-07T00:06:44.655Z,984.76
2023-01-07T00:12:16.376Z,984.39
2023-01-07T00:17:47.835Z,984.64
2023-01-07T00:23:19.649Z,984.76
2023-01-07T00:28:57.605Z,984.62
2023-01-07T00:34:29.293Z,984.48
2023-01-07T00:40:01.273Z,984.44
2023-01-07T00:45:32.907Z,984.38
2023-01-07T00:51:04.521Z,984.14
2023-01-07T00:56:36.073Z,983.99
2023-01-07T01:02:08.238Z,984.04
2023-01-07T01:07:39.534Z,983.97
2023-01-07T01:13:11.337Z,983.88
2023-01-07T01:18:43.152Z,983.79
2023-01-07T01:24:15.009Z,983.71
2023-01-07T01:29:51.104Z,983.68
2023-01-07T01:35:22.548Z,983.58
2023-01-07T01:40:54.513Z,983.64
2023-01-07T01:46:26.052Z,983.54
2023-01-07T01:51:57.722Z,983.42
2023-01-07T01:57:29.632Z,983.13
2023-01-07T02:03:01.639Z,983.09
2023-01-07T02:08:33.191Z,982.49
2023-01-07T02:14:04.926Z,982.97
2023-01-07T02:19:36.555Z,982.56
2023-01-07T02:25:08.356Z,982.56
2023-01-07T02:30:44.552Z,982.94
2023-01-07T02:36:16.027Z,982.88
2023-01-07T02:41:48.105Z,982.52
2023-01-07T02:47:19.665Z,982.39
2023-01-07T02:52:52.418Z,982.3
2023-01-07T02:58:23.204Z,982.29
2023-01-07T03:03:54.642Z,982.48
2023-01-07T03:09:26.490Z,982.34
2023-01-07T03:14:58.245Z,981.85
2023-01-07T03:20:29.825Z,981.38
2023-01-07T03:26:01.583Z,981.92
2023-01-07T03:31:37.762Z,981.79
2023-01-07T03:37:09.254Z,981.84
2023-01-07T03:42:41.267Z,981.92
2023-01-07T03:48:12.967Z,981.35
2023-01-07T03:53:44.800Z,981.46
2023-01-07T03:59:16.346Z,980.82
2023-01-07T04:04:48.311Z,981.11
2023-01-07T04:10:19.771Z,980.95
2023-01-07T04:15:51.504Z,981.36
2023-01-07T04:21:23.024Z,981.41
2023-01-07T04:26:55.314Z,981.01
2023-01-07T04:32:31.013Z,980.59
2023-01-07T04:38:02.714Z,980.88
2023-01-07T04:43:34.729Z,980.81
2023-01-07T04:49:06.321Z,980.34
2023-01-07T04:54:37.947Z,980.77
2023-01-07T05:00:09.896Z,980.87
2023-01-07T05:05:41.605Z,980.1
2023-01-07T05:11:13.279Z,980.61
2023-01-07T05:16:45.799Z,980.64
2023-01-07T05:22:16.597Z,980.44
2023-01-07T05:27:48.255Z,980.62
2023-01-07T05:33:24.592Z,980.43
2023-01-07T05:38:56.082Z,980.18
2023-01-07T05:44:27.721Z,979.86
2023-01-07T05:49:59.736Z,979.75
2023-01-07T05:55:31.341Z,979.67
2023-01-07T06:01:02.941Z,979.49
2023-01-07T06:06:34.569Z,979.65
2023-01-07T06:12:06.453Z,979.31
2023-01-07T06:17:38.306Z,979.44
2023-01-07T06:23:09.791Z,979.56
2023-01-07T06:28:41.482Z,979.07
2023-01-07T06:34:19.650Z,978.87
2023-01-07T06:39:51.357Z,978.79
2023-01-07T06:45:23.138Z,978.47
2023-01-07T06:50:54.862Z,978.57
2023-01-07T06:56:26.540Z,978.52
2023-01-07T07:01:58.530Z,978.52
2023-01-07T07:07:30.037Z,978.19
2023-01-07T07:13:01.684Z,978.02
2023-01-07T07:18:33.901Z,977.69
2023-01-07T07:24:05.643Z,977.43
2023-01-07T07:29:37.324Z,977.86
2023-01-07T07:35:13.769Z,977.87
2023-01-07T07:40:44.928Z,977.52
2023-01-07T07:46:16.989Z,977.59
2023-01-07T07:51:48.316Z,977.77
2023-01-07T07:57:19.957Z,977.96
2023-01-07T08:02:51.889Z,978.07
2023-01-07T08:08:23.654Z,978.45
2023-01-07T08:13:56.137Z,977.92
2023-01-07T08:19:27.180Z,978.4
2023-01-07T08:24:58.568Z,978.29
2023-01-07T08:30:30.418Z,978.03
2023-01-07T08:36:23.683Z,978.16
2023-01-07T08:41:38.298Z,978.49
2023-01-07T08:47:09.828Z,977.58
2023-01-07T08:52:41.541Z,977.86
2023-01-07T08:58:13.388Z,977.41
2023-01-07T09:03:45.039Z,978.07
2023-01-07T09:09:16.828Z,978.34
2023-01-07T09:14:48.640Z,978.29
2023-01-07T09:20:20.150Z,977.8
2023-01-07T09:25:51.977Z,977.97
2023-01-07T09:31:25.081Z,978.73
2023-01-07T09:37:02.010Z,978.54
2023-01-07T09:42:34.839Z,978.2
2023-01-07T09:48:05.395Z,978.17
2023-01-07T09:53:37.039Z,978.2
2023-01-07T09:59:08.924Z,978.44
2023-01-07T10:04:40.556Z,978.22
2023-01-07T10:10:12.654Z,977.86
2023-01-07T10:15:43.948Z,977.34
2023-01-07T10:21:15.622Z,977.68
2023-01-07T10:26:47.661Z,977.05
2023-01-07T10:32:19.276Z,977.05
2023-01-07T10:37:57.457Z,977.03
2023-01-07T10:43:29.092Z,977.55
2023-01-07T10:49:00.633Z,978.09
2023-01-07T10:54:32.320Z,977.82
2023-01-07T11:00:04.050Z,977.84
2023-01-07T11:05:38.172Z,977.69
2023-01-07T11:11:07.409Z,977.91
2023-01-07T11:16:39.866Z,978.39
2023-01-07T11:22:10.936Z,977.93
2023-01-07T11:27:42.687Z,978.13
2023-01-07T11:33:14.473Z,978.46
2023-01-07T11:38:50.401Z,978.19
2023-01-07T11:44:22.267Z,978.8
2023-01-07T11:49:54.059Z,979.0
2023-01-07T11:55:25.640Z,979.81
2023-01-07T12:00:57.408Z,980.08
2023-01-07T12:06:29.286Z,978.15
2023-01-07T12:12:00.991Z,979.08
2023-01-07T12:17:32.821Z,979.69
2023-01-07T12:23:04.458Z,978.58
2023-01-07T12:28:36.225Z,978.79
2023-01-07T12:34:07.833Z,978.02
2023-01-07T12:39:43.893Z,977.09
2023-01-07T12:45:15.756Z,976.93
2023-01-07T12:50:47.407Z,976.89
2023-01-07T12:56:20.081Z,976.41
2023-01-07T13:01:51.335Z,976.37
2023-01-07T13:07:22.569Z,976.48
2023-01-07T13:12:54.357Z,975.99
2023-01-07T13:18:25.984Z,975.16
2023-01-07T13:23:57.741Z,975.75
2023-01-07T13:29:29.427Z,975.7
2023-01-07T13:35:01.112Z,975.26
2023-01-07T13:40:39.237Z,975.14
2023-01-07T13:46:11.210Z,975.34
2023-01-07T13:51:42.785Z,974.98
2023-01-07T13:57:14.604Z,975.51
2023-01-07T14:02:46.336Z,974.88
2023-01-07T14:08:18.032Z,974.92
2023-01-07T14:13:49.611Z,975.16
2023-01-07T14:19:21.329Z,974.9
2023-01-07T14:24:53.552Z,974.64
2023-01-07T14:30:24.886Z,974.83
2023-01-07T14:35:56.619Z,974.24
2023-01-07T14:41:32.893Z,973.92
2023-01-07T14:47:04.413Z,974.77
2023-01-07T14:52:36.458Z,973.96
2023-01-07T14:58:07.947Z,973.81
2023-01-07T15:03:39.711Z,973.96
2023-01-07T15:09:11.433Z,973.71
2023-01-07T15:14:43.091Z,973.98
2023-01-07T15:20:14.913Z,973.17
2023-01-07T15:25:47.349Z,973.44
2023-01-07T15:31:18.444Z,972.95
2023-01-07T15:36:50.006Z,972.43
2023-01-07T15:42:26.241Z,972.51
2023-01-07T15:47:57.706Z,972.86
2023-01-07T15:53:29.594Z,973.34
2023-01-07T15:59:01.677Z,973.0
2023-01-07T16:04:33.774Z,972.41
2023-01-07T16:10:04.837Z,971.9
2023-01-07T16:15:36.557Z,972.07
2023-01-07T16:21:08.174Z,971.84
2023-01-07T16:26:40.004Z,972.31
2023-01-07T16:32:11.631Z,972.4
2023-01-07T16:37:43.410Z,972.45
2023-01-07T16:43:19.434Z,971.74
2023-01-07T16:48:51.245Z,971.71
2023-01-07T16:54:22.967Z,971.86
2023-01-07T16:59:55.023Z,971.51
2023-01-07T17:05:26.541Z,971.52
2023-01-07T17:10:58.113Z,971.53
2023-01-07T17:16:30.289Z,971.79
2023-01-07T17:22:01.742Z,971.83
2023-01-07T17:27:33.868Z,970.9
2023-01-07T17:33:05.361Z,970.59
2023-01-07T17:38:37.096Z,970.49
2023-01-07T17:44:15.163Z,970.38
2023-01-07T17:49:46.865Z,969.87
2023-01-07T17:55:18.579Z,970.17
2023-01-07T18:00:50.600Z,969.94
2023-01-07T18:06:22.141Z,970.11
2023-01-07T18:11:53.785Z,969.95
2023-01-07T18:17:25.659Z,970.31
2023-01-07T18:22:57.697Z,970.07
2023-01-07T18:28:29.438Z,970.17
2023-01-07T18:34:00.833Z,970.06
2023-01-07T18:39:32.644Z,969.92
2023-01-07T18:45:10.732Z,970.12
2023-01-07T18:50:42.309Z,969.53
2023-01-07T18:56:14.015Z,969.57
2023-01-07T19:01:46.174Z,969.55
2023-01-07T19:07:17.735Z,969.65
2023-01-07T19:12:49.473Z,969.44
2023-01-07T19:18:21.392Z,969.68
2023-01-07T19:23:53.108Z,969.37
2023-01-07T19:29:24.696Z,969.37
2023-01-07T19:34:56.320Z,969.39
2023-01-07T19:40:27.953Z,969.64
2023-01-07T19:46:06.520Z,969.59
2023-01-07T19:51:38.048Z,969.65
2023-01-07T19:57:09.896Z,969.69
2023-01-07T20:02:41.823Z,969.49
2023-01-07T20:08:13.208Z,969.57
2023-01-07T20:13:44.932Z,969.6
2023-01-07T20:19:16.782Z,969.51
2023-01-07T20:24:48.692Z,969.7
2023-01-07T20:30:20.125Z,969.48
2023-01-07T20:35:51.781Z,969.68
2023-01-07T20:41:23.533Z,969.77
2023-01-07T20:46:59.761Z,969.69
2023-01-07T20:52:31.584Z,969.56
2023-01-07T20:58:03.246Z,969.02
2023-01-07T21:03:34.831Z,969.06
2023-01-07T21:09:06.672Z,968.82
2023-01-07T21:14:38.292Z,968.49
2023-01-07T21:20:10.171Z,969.06
2023-01-07T21:25:42.087Z,968.75
2023-01-07T21:31:13.931Z,968.84
2023-01-07T21:36:45.191Z,968.79
2023-01-07T21:42:17.731Z,968.8
2023-01-07T21:47:53.219Z,969.14
2023-01-07T21:53:24.929Z,969.19
2023-01-07T21:58:56.542Z,968.81
2023-01-07T22:04:28.444Z,968.91
2023-01-07T22:10:00.038Z,969.4
2023-01-07T22:15:31.680Z,969.27
2023-01-07T22:21:03.628Z,969.24
2023-01-07T22:26:35.237Z,969.52
2023-01-07T22:32:07.172Z,969.16
2023-01-07T22:37:38.716Z,968.99
2023-01-07T22:43:10.759Z,969.19
2023-01-07T22:48:48.773Z,969.09
2023-01-07T22:54:20.274Z,969.13
2023-01-07T22:59:52.023Z,969.5
2023-01-07T23:05:23.661Z,968.57
2023-01-07T23:10:55.386Z,968.38
2023-01-07T23:16:27.638Z,968.31
2023-01-07T23:21:58.883Z,968.14
2023-01-07T23:27:31.058Z,968.48
2023-01-07T23:33:02.375Z,968.2
2023-01-07T23:38:33.889Z,968.16
2023-01-07T23:44:05.723Z,968.1
2023-01-07T23:49:41.721Z,968.28
2023-01-07T23:55:13.633Z,968.54
